Time;durP1;ratioP1;P1;durP2;ratioP2;P2;SDS_P1;SDS_P2;PMS_P1;PMS_P2;Temp;Humidity;BMP_temperature;BMP_pressure;BME280_temperature;BME280_humidity;BME280_pressure;Samples;Min_cycle;Max_cycle;Signal;HPM_P1;HPM_P2
2022/09/26 00:01:08;;;;;;;5.63;3.55;;;14.60;99.90;;;;;;7389153;19;20146;-80
2022/09/26 00:03:35;;;;;;;4.82;3.45;;;14.60;99.90;;;;;;7388912;19;20138;-82
2022/09/26 00:06:06;;;;;;;4.83;3.77;;;14.50;99.90;;;;;;7386055;19;20205;-81
2022/09/26 00:08:33;;;;;;;4.73;3.73;;;14.50;99.90;;;;;;7390704;19;20246;-80
2022/09/26 00:11:00;;;;;;;7.13;4.20;;;14.60;99.90;;;;;;7391106;19;20606;-81
2022/09/26 00:13:28;;;;;;;4.80;4.05;;;14.60;99.90;;;;;;7388571;19;20146;-81
2022/09/26 00:15:55;;;;;;;4.40;3.78;;;14.60;99.90;;;;;;7390689;19;20245;-80
2022/09/26 00:18:21;;;;;;;4.97;3.30;;;14.50;99.90;;;;;;7390068;19;20157;-77
2022/09/26 00:20:48;;;;;;;5.60;4.03;;;14.60;99.90;;;;;;7393237;19;20769;-81
2022/09/26 00:23:14;;;;;;;6.03;3.93;;;14.70;99.90;;;;;;7390803;19;20135;-81
2022/09/26 00:25:48;;;;;;;4.33;3.60;;;14.60;99.90;;;;;;7389472;19;20204;-81
2022/09/26 00:28:14;;;;;;;6.13;3.70;;;14.70;99.90;;;;;;7391115;19;20130;-80
2022/09/26 00:30:40;;;;;;;7.00;3.93;;;14.60;99.90;;;;;;7393167;19;20587;-82
2022/09/26 00:33:06;;;;;;;4.20;3.53;;;14.60;99.90;;;;;;7391496;19;20143;-80
2022/09/26 00:35:32;;;;;;;8.73;3.87;;;14.50;99.90;;;;;;7391517;19;20136;-81
2022/09/26 00:37:58;;;;;;;6.68;3.70;;;14.50;99.90;;;;;;7388545;19;20130;-82
2022/09/26 00:40:25;;;;;;;4.17;3.20;;;14.50;99.90;;;;;;7392017;19;20148;-80
2022/09/26 00:42:55;;;;;;;7.00;4.17;;;14.60;99.90;;;;;;7391865;19;20406;-82
2022/09/26 00:45:23;;;;;;;5.90;3.88;;;14.60;99.90;;;;;;7389383;19;20150;-81
2022/09/26 00:47:58;;;;;;;4.13;3.47;;;14.40;99.90;;;;;;7391318;19;20150;-78
2022/09/26 00:50:33;;;;;;;6.40;4.17;;;14.40;99.90;;;;;;7390169;19;20550;-79
2022/09/26 00:53:08;;;;;;;4.80;3.43;;;14.40;99.90;;;;;;7388839;19;20157;-79
2022/09/26 00:55:38;;;;;;;5.85;4.05;;;14.60;99.90;;;;;;7388749;19;20175;-82
2022/09/26 00:58:15;;;;;;;4.57;3.92;;;14.40;99.90;;;;;;7388054;19;20143;-80
2022/09/26 01:00:43;;;;;;;4.13;3.60;;;14.40;99.90;;;;;;7390650;19;20146;-81
2022/09/26 01:03:09;;;;;;;4.60;3.85;;;14.40;99.90;;;;;;7390978;19;20202;-81
2022/09/26 01:05:36;;;;;;;7.13;3.63;;;14.30;99.90;;;;;;7390164;19;20156;-80
2022/09/26 01:08:04;;;;;;;5.37;3.93;;;14.40;99.90;;;;;;7386998;19;20157;-81
2022/09/26 01:10:31;;;;;;;4.80;4.10;;;14.40;99.90;;;;;;7388968;19;20157;-81
2022/09/26 01:13:00;;;;;;;5.63;3.97;;;14.30;99.90;;;;;;7387447;19;20135;-81
2022/09/26 01:15:25;;;;;;;7.97;5.05;;;14.20;99.90;;;;;;7393590;19;20961;-81
2022/09/26 01:17:51;;;;;;;5.57;4.07;;;14.30;99.90;;;;;;7395098;19;20142;-81
2022/09/26 01:20:23;;;;;;;8.10;4.30;;;14.30;99.90;;;;;;7399009;19;20594;-82
2022/09/26 01:23:25;;;;;;;5.35;4.30;;;14.30;99.90;;;;;;7396574;19;20714;-79
2022/09/26 01:26:17;;;;;;;5.47;4.00;;;14.30;99.90;;;;;;7393974;19;20177;-80
2022/09/26 01:29:03;;;;;;;4.78;3.88;;;14.30;99.90;;;;;;7396550;19;20147;-80
2022/09/26 01:35:00;;;;;;;4.70;3.80;;;14.10;99.90;;;;;;7398253;19;20142;-81
2022/09/26 01:37:41;;;;;;;5.83;4.10;;;14.10;99.90;;;;;;7395381;19;20172;-81
2022/09/26 01:40:14;;;;;;;7.15;3.80;;;13.80;99.90;;;;;;7396047;19;20150;-79
2022/09/26 01:42:58;;;;;;;6.80;3.67;;;13.60;99.90;;;;;;7398046;19;20145;-82
2022/09/26 01:45:38;;;;;;;4.20;3.80;;;13.80;99.90;;;;;;7396973;19;20130;-81
2022/09/26 01:48:18;;;;;;;5.30;3.80;;;13.80;99.90;;;;;;7396488;19;20138;-81
2022/09/26 01:50:56;;;;;;;5.93;4.23;;;14.00;99.90;;;;;;7400422;19;20134;-81
2022/09/26 01:53:26;;;;;;;4.68;3.88;;;14.00;99.90;;;;;;7398804;19;20138;-82
2022/09/26 01:56:01;;;;;;;6.40;4.10;;;14.00;99.90;;;;;;7396187;19;20510;-82
2022/09/26 01:58:29;;;;;;;5.33;4.17;;;14.00;99.90;;;;;;7396735;19;20140;-81
2022/09/26 02:01:01;;;;;;;6.38;4.10;;;14.20;99.90;;;;;;7396683;19;20142;-80
2022/09/26 02:03:33;;;;;;;7.70;4.70;;;14.00;99.90;;;;;;7394555;19;20210;-81
2022/09/26 02:06:08;;;;;;;8.00;4.00;;;13.90;99.90;;;;;;7397476;19;20142;-80
2022/09/26 02:08:41;;;;;;;4.05;3.65;;;14.00;99.90;;;;;;7394187;19;20138;-81
2022/09/26 02:11:14;;;;;;;6.13;3.85;;;14.00;99.90;;;;;;7393783;19;20135;-82
2022/09/26 02:13:50;;;;;;;6.60;3.57;;;14.00;99.90;;;;;;7396304;19;20142;-81
2022/09/26 02:16:37;;;;;;;3.95;3.25;;;14.00;99.90;;;;;;7396588;19;20139;-81
2022/09/26 02:19:19;;;;;;;5.40;3.70;;;14.00;99.90;;;;;;7397403;19;20202;-81
2022/09/26 02:21:45;;;;;;;4.30;3.70;;;14.00;99.90;;;;;;7397492;19;20152;-82
2022/09/26 02:24:11;;;;;;;5.77;3.93;;;13.90;99.90;;;;;;7395137;19;20154;-82
2022/09/26 02:26:41;;;;;;;5.77;4.10;;;13.90;99.90;;;;;;7392550;19;20218;-80
2022/09/26 02:29:08;;;;;;;4.80;3.50;;;13.90;99.90;;;;;;7395020;19;20157;-82
2022/09/26 02:31:40;;;;;;;4.70;3.77;;;13.90;99.90;;;;;;7395051;19;20143;-80
2022/09/26 02:34:06;;;;;;;4.90;3.80;;;13.90;99.90;;;;;;7397026;19;20142;-81
2022/09/26 02:36:33;;;;;;;5.80;3.92;;;13.90;99.90;;;;;;7392784;19;20222;-81
2022/09/26 02:39:00;;;;;;;5.38;3.90;;;13.70;99.90;;;;;;7395394;19;20142;-80
2022/09/26 02:41:39;;;;;;;5.57;3.65;;;13.80;99.90;;;;;;7395551;19;20154;-81
2022/09/26 02:44:43;;;;;;;4.72;3.45;;;13.80;99.90;;;;;;7394787;19;20138;-80
2022/09/26 02:47:32;;;;;;;4.20;3.65;;;13.80;99.90;;;;;;7395045;19;20162;-80
2022/09/26 02:50:36;;;;;;;5.85;3.88;;;13.80;99.90;;;;;;7395878;19;20159;-80
2022/09/26 02:53:35;;;;;;;6.33;3.80;;;13.80;99.90;;;;;;7396141;19;20234;-78
2022/09/26 02:56:13;;;;;;;6.10;4.27;;;13.80;99.90;;;;;;7393047;19;20150;-81
2022/09/26 02:59:15;;;;;;;5.15;3.63;;;13.70;99.90;;;;;;7393755;19;20158;-80
2022/09/26 03:01:44;;;;;;;5.13;3.65;;;13.80;99.90;;;;;;7393796;19;20135;-81
2022/09/26 03:04:50;;;;;;;5.00;3.10;;;13.80;99.90;;;;;;7394712;19;20152;-81
2022/09/26 03:07:28;;;;;;;4.53;3.40;;;13.90;99.90;;;;;;7393005;19;20213;-80
2022/09/26 03:09:56;;;;;;;5.72;3.22;;;13.80;99.90;;;;;;7393501;19;20612;-80
2022/09/26 03:12:25;;;;;;;3.80;3.10;;;13.80;99.90;;;;;;7395428;19;20138;-80
2022/09/26 03:14:52;;;;;;;5.70;3.70;;;13.80;99.90;;;;;;7394970;19;20490;-81
2022/09/26 03:17:19;;;;;;;4.97;3.85;;;13.80;99.90;;;;;;7393570;19;20142;-79
2022/09/26 03:19:51;;;;;;;4.37;3.30;;;13.70;99.90;;;;;;7391001;19;20142;-82
2022/09/26 03:22:17;;;;;;;3.30;2.97;;;13.60;99.90;;;;;;7395696;19;20131;-82
2022/09/26 03:24:44;;;;;;;4.30;3.20;;;13.70;99.90;;;;;;7392949;19;20155;-81
2022/09/26 03:27:12;;;;;;;4.93;3.53;;;13.70;99.90;;;;;;7393284;19;20150;-78
2022/09/26 03:29:38;;;;;;;4.87;3.60;;;13.90;99.90;;;;;;7391853;19;20185;-81
2022/09/26 03:32:05;;;;;;;6.13;3.63;;;13.80;99.90;;;;;;7395206;19;20142;-80
2022/09/26 03:34:30;;;;;;;5.90;3.50;;;13.90;99.90;;;;;;7389868;19;20127;-80
2022/09/26 03:36:56;;;;;;;4.07;3.42;;;14.00;99.90;;;;;;7390936;19;20130;-81
2022/09/26 03:39:22;;;;;;;5.57;3.60;;;13.80;99.90;;;;;;7392352;19;20162;-81
2022/09/26 03:41:48;;;;;;;9.20;3.53;;;13.80;99.90;;;;;;7394424;19;20135;-82
2022/09/26 03:44:14;;;;;;;4.37;3.30;;;13.70;99.90;;;;;;7391768;19;20139;-83
2022/09/26 03:46:41;;;;;;;3.07;2.77;;;13.70;99.90;;;;;;7393041;19;20631;-82
2022/09/26 03:49:09;;;;;;;3.78;2.95;;;13.60;99.90;;;;;;7391637;19;20147;-83
2022/09/26 03:51:35;;;;;;;4.87;3.07;;;13.50;99.90;;;;;;7393121;19;20157;-83
2022/09/26 03:54:01;;;;;;;4.43;3.00;;;13.60;99.90;;;;;;7392493;19;20160;-82
2022/09/26 03:56:27;;;;;;;3.40;3.10;;;13.60;99.90;;;;;;7390542;19;20189;-81
2022/09/26 03:58:53;;;;;;;3.80;2.53;;;13.70;99.90;;;;;;7390208;19;20612;-79
2022/09/26 04:01:21;;;;;;;4.03;2.60;;;13.60;99.90;;;;;;7391985;19;20723;-81
2022/09/26 04:03:48;;;;;;;3.10;2.73;;;13.60;99.90;;;;;;7390911;19;20513;-82
2022/09/26 04:06:18;;;;;;;6.63;3.20;;;13.70;99.90;;;;;;7392362;19;20134;-81
2022/09/26 04:08:46;;;;;;;5.70;2.70;;;13.80;99.90;;;;;;7391946;19;20265;-81
2022/09/26 04:11:15;;;;;;;3.80;2.03;;;13.70;99.90;;;;;;7390065;19;20630;-81
2022/09/26 04:13:44;;;;;;;4.40;2.60;;;13.80;99.90;;;;;;7393362;19;20139;-81
2022/09/26 04:16:10;;;;;;;3.63;2.92;;;13.80;99.90;;;;;;7390721;19;20159;-81
2022/09/26 04:18:36;;;;;;;3.90;2.90;;;13.60;99.90;;;;;;7392466;19;20139;-83
2022/09/26 04:21:07;;;;;;;2.90;2.60;;;13.60;99.90;;;;;;7391832;19;20483;-83
2022/09/26 04:23:36;;;;;;;3.80;2.70;;;13.60;99.90;;;;;;7390838;19;20155;-81
2022/09/26 04:26:07;;;;;;;4.13;2.60;;;13.60;99.90;;;;;;7388403;19;20185;-81
2022/09/26 04:28:34;;;;;;;3.20;2.57;;;13.70;99.90;;;;;;7391050;19;20146;-82
2022/09/26 04:31:01;;;;;;;6.57;2.75;;;13.60;99.90;;;;;;7388890;19;20142;-80
2022/09/26 04:33:28;;;;;;;3.97;2.50;;;13.70;99.90;;;;;;7392484;19;20130;-81
2022/09/26 04:35:54;;;;;;;3.70;2.53;;;13.70;99.90;;;;;;7388273;19;20154;-81
2022/09/26 04:38:20;;;;;;;4.07;2.57;;;13.60;99.90;;;;;;7389665;19;20877;-82
2022/09/26 04:40:46;;;;;;;3.23;2.70;;;13.30;99.90;;;;;;7390789;19;20156;-80
2022/09/26 04:43:12;;;;;;;3.00;2.70;;;13.30;99.90;;;;;;7391879;19;20490;-80
2022/09/26 04:45:42;;;;;;;3.80;2.25;;;13.50;99.90;;;;;;7389896;19;20155;-79
2022/09/26 04:48:11;;;;;;;4.90;2.40;;;13.50;99.90;;;;;;7389128;19;20138;-83
2022/09/26 04:50:37;;;;;;;3.50;2.38;;;13.30;99.90;;;;;;7396534;19;20202;-82
2022/09/26 04:53:05;;;;;;;2.30;2.10;;;13.00;99.90;;;;;;7398265;19;20147;-84
2022/09/26 04:55:32;;;;;;;4.65;2.40;;;12.80;99.90;;;;;;7395960;19;20230;-84
2022/09/26 04:57:57;;;;;;;4.40;2.20;;;13.00;99.90;;;;;;7398179;19;20146;-83
2022/09/26 05:00:23;;;;;;;3.63;2.27;;;13.10;99.90;;;;;;7397617;19;20137;-82
2022/09/26 05:02:49;;;;;;;2.73;2.40;;;13.10;99.90;;;;;;7399865;19;20131;-82
2022/09/26 05:05:15;;;;;;;3.90;2.10;;;13.10;99.90;;;;;;7397229;19;20633;-83
2022/09/26 05:07:41;;;;;;;3.38;2.10;;;13.20;99.90;;;;;;7398190;19;20168;-83
2022/09/26 05:10:09;;;;;;;3.53;2.60;;;13.30;99.90;;;;;;7397890;19;20135;-84
2022/09/26 05:12:38;;;;;;;3.07;2.33;;;13.20;99.90;;;;;;7398827;19;20176;-83
2022/09/26 05:15:07;;;;;;;2.73;2.40;;;13.30;99.90;;;;;;7398864;19;20142;-83
2022/09/26 05:17:36;;;;;;;4.83;2.73;;;13.30;99.90;;;;;;7393525;19;20170;-83
2022/09/26 05:20:07;;;;;;;2.60;2.10;;;13.40;99.90;;;;;;7396266;19;20154;-82
2022/09/26 05:22:33;;;;;;;4.30;2.17;;;13.30;99.90;;;;;;7397919;19;20150;-83
2022/09/26 05:27:44;;;;;;;3.60;2.20;;;13.30;99.90;;;;;;7396773;19;20561;-83
2022/09/26 05:30:13;;;;;;;2.97;2.47;;;13.30;99.90;;;;;;7397598;19;20154;-83
2022/09/26 05:32:39;;;;;;;4.27;2.73;;;13.30;99.90;;;;;;7393497;19;20153;-81
2022/09/26 05:35:06;;;;;;;3.20;2.33;;;13.20;99.90;;;;;;7395957;19;20139;-82
2022/09/26 05:37:32;;;;;;;3.17;2.20;;;13.20;99.90;;;;;;7395775;19;20157;-84
2022/09/26 05:42:42;;;;;;;5.20;2.50;;;13.20;99.90;;;;;;7394430;19;20130;-81
2022/09/26 05:45:08;;;;;;;2.37;1.97;;;13.40;99.90;;;;;;7393267;19;20154;-80
2022/09/26 05:47:35;;;;;;;3.50;2.47;;;13.30;99.90;;;;;;7395378;19;20126;-81
2022/09/26 05:50:08;;;;;;;3.67;2.33;;;13.30;99.90;;;;;;7394458;19;20138;-81
2022/09/26 05:52:35;;;;;;;3.83;2.10;;;13.40;99.90;;;;;;7393865;19;20169;-81
2022/09/26 05:55:02;;;;;;;2.33;2.00;;;13.40;99.90;;;;;;7394363;19;20162;-81
2022/09/26 05:57:28;;;;;;;3.33;2.27;;;13.40;99.90;;;;;;7396544;19;20231;-82
2022/09/26 05:59:54;;;;;;;5.03;2.67;;;13.20;99.90;;;;;;7388068;19;20131;-79
2022/09/26 06:02:19;;;;;;;4.40;2.45;;;13.30;99.90;;;;;;7392514;19;20138;-79
2022/09/26 06:04:45;;;;;;;5.85;2.60;;;13.40;99.90;;;;;;7394683;19;20127;-81
2022/09/26 06:07:11;;;;;;;5.37;2.40;;;13.50;99.90;;;;;;7393813;19;20138;-80
2022/09/26 06:09:37;;;;;;;3.23;2.53;;;13.60;99.90;;;;;;7394252;19;20174;-81
2022/09/26 06:12:03;;;;;;;4.63;2.23;;;13.60;99.90;;;;;;7395670;19;20142;-80
2022/09/26 06:14:29;;;;;;;6.13;2.27;;;13.60;99.90;;;;;;7393458;19;20242;-81
2022/09/26 06:16:55;;;;;;;3.87;2.60;;;13.60;99.90;;;;;;7392320;19;20710;-82
2022/09/26 06:19:21;;;;;;;3.53;2.23;;;13.50;99.90;;;;;;7393438;19;20164;-81
2022/09/26 06:21:47;;;;;;;2.70;2.00;;;13.60;99.90;;;;;;7390546;19;20126;-81
2022/09/26 06:24:12;;;;;;;3.13;2.13;;;13.60;99.90;;;;;;7392553;19;20150;-79
2022/09/26 06:26:38;;;;;;;7.03;3.37;;;13.70;99.90;;;;;;7393273;19;20804;-81
2022/09/26 06:29:06;;;;;;;8.88;3.40;;;13.90;99.90;;;;;;7392192;19;20146;-81
2022/09/26 06:31:32;;;;;;;3.08;2.53;;;13.80;99.90;;;;;;7394943;19;20142;-82
2022/09/26 06:34:00;;;;;;;7.77;3.43;;;13.90;99.90;;;;;;7395659;19;20161;-81
2022/09/26 06:36:26;;;;;;;6.10;3.50;;;13.90;99.90;;;;;;7391573;19;20214;-82
2022/09/26 06:38:54;;;;;;;3.33;2.00;;;13.80;99.90;;;;;;7393784;19;20556;-82
2022/09/26 06:41:20;;;;;;;3.72;2.45;;;13.80;99.90;;;;;;7392716;19;20610;-79
2022/09/26 06:43:46;;;;;;;6.07;2.65;;;13.90;99.90;;;;;;7394780;19;20206;-81
2022/09/26 06:46:13;;;;;;;3.83;2.63;;;13.80;99.90;;;;;;7393410;19;20206;-80
2022/09/26 06:48:40;;;;;;;2.43;1.80;;;13.80;99.90;;;;;;7393355;19;20464;-82
2022/09/26 06:51:06;;;;;;;5.77;2.50;;;13.80;99.90;;;;;;7396020;19;20137;-82
2022/09/26 06:53:33;;;;;;;4.07;2.30;;;13.80;99.90;;;;;;7399495;19;20860;-82
2022/09/26 06:56:00;;;;;;;5.72;2.15;;;13.70;99.90;;;;;;7393240;19;20143;-81
2022/09/26 06:58:26;;;;;;;2.67;1.97;;;13.90;99.90;;;;;;7393009;19;20163;-81
2022/09/26 07:00:52;;;;;;;3.72;2.30;;;13.90;99.90;;;;;;7390353;19;20549;-81
2022/09/26 07:03:18;;;;;;;4.28;1.98;;;14.10;99.90;;;;;;7395551;19;20154;-81
2022/09/26 07:05:45;;;;;;;2.95;1.95;;;14.00;99.90;;;;;;7395789;19;20139;-82
2022/09/26 07:08:13;;;;;;;4.30;2.00;;;13.90;99.90;;;;;;7396959;19;20134;-81
2022/09/26 07:10:39;;;;;;;3.27;2.00;;;13.90;99.90;;;;;;7398933;19;20174;-80
2022/09/26 07:13:09;;;;;;;2.75;1.88;;;14.00;99.90;;;;;;7396622;19;20163;-82
2022/09/26 07:15:36;;;;;;;5.33;2.20;;;14.40;99.90;;;;;;7394672;19;20903;-81
2022/09/26 07:18:05;;;;;;;4.38;2.50;;;14.20;99.90;;;;;;7392787;19;20137;-82
2022/09/26 07:20:34;;;;;;;3.97;1.97;;;14.30;99.90;;;;;;7397285;19;20135;-82
2022/09/26 07:23:05;;;;;;;3.88;2.42;;;14.50;99.90;;;;;;7395026;19;21043;-81
2022/09/26 07:25:32;;;;;;;2.58;1.80;;;14.50;99.90;;;;;;7389357;19;20146;-82
2022/09/26 07:27:58;;;;;;;3.38;2.00;;;14.40;99.90;;;;;;7391684;19;20619;-81
2022/09/26 07:30:24;;;;;;;2.17;1.88;;;14.40;99.90;;;;;;7394937;19;20215;-82
2022/09/26 07:32:50;;;;;;;2.50;1.80;;;14.60;99.90;;;;;;7392703;19;20148;-82
2022/09/26 07:35:16;;;;;;;2.63;1.97;;;14.50;99.90;;;;;;7392892;19;20615;-80
2022/09/26 07:37:49;;;;;;;3.28;1.73;;;14.60;99.90;;;;;;7394012;19;20135;-83
2022/09/26 07:40:16;;;;;;;3.67;2.15;;;14.70;99.90;;;;;;7391703;19;20135;-83
2022/09/26 07:42:43;;;;;;;2.75;1.48;;;14.60;99.90;;;;;;7390635;19;20610;-84
2022/09/26 07:45:10;;;;;;;4.45;1.80;;;14.70;99.90;;;;;;7394651;19;20210;-82
2022/09/26 07:50:20;;;;;;;3.22;1.60;;;14.80;99.90;;;;;;7394588;19;20248;-82
2022/09/26 07:52:48;;;;;;;3.65;1.67;;;14.70;99.90;;;;;;7394578;19;20161;-82
2022/09/26 07:55:18;;;;;;;2.58;1.50;;;14.80;99.90;;;;;;7395986;19;20595;-84
2022/09/26 07:57:48;;;;;;;2.95;1.48;;;14.80;99.90;;;;;;7394046;19;20146;-82
2022/09/26 08:00:17;;;;;;;1.92;1.40;;;15.00;99.90;;;;;;7395497;19;20135;-81
2022/09/26 08:02:46;;;;;;;2.15;1.40;;;15.00;99.90;;;;;;7393681;19;20154;-84
2022/09/26 08:05:20;;;;;;;2.22;1.45;;;14.90;99.90;;;;;;7393443;19;20166;-83
2022/09/26 08:07:48;;;;;;;2.47;1.50;;;14.80;99.90;;;;;;7389071;19;20165;-80
2022/09/26 08:10:20;;;;;;;2.72;1.73;;;14.70;99.90;;;;;;7387963;19;20153;-82
2022/09/26 08:12:47;;;;;;;3.47;1.63;;;14.80;99.90;;;;;;7391591;19;20188;-84
2022/09/26 08:15:14;;;;;;;3.65;2.53;;;14.80;99.90;;;;;;7394579;19;20167;-84
2022/09/26 08:17:40;;;;;;;2.05;1.70;;;14.80;99.90;;;;;;7393770;19;20162;-83
2022/09/26 08:20:06;;;;;;;3.67;2.00;;;14.90;99.90;;;;;;7391072;19;20174;-81
2022/09/26 08:22:32;;;;;;;3.10;1.85;;;14.80;99.90;;;;;;7390558;19;20707;-83
2022/09/26 08:24:59;;;;;;;2.22;1.80;;;15.10;99.90;;;;;;7387077;19;20175;-84
2022/09/26 08:27:25;;;;;;;3.03;1.77;;;15.10;99.90;;;;;;7391646;19;20901;-84
2022/09/26 08:29:51;;;;;;;4.35;2.00;;;15.20;99.90;;;;;;7391696;19;20146;-82
2022/09/26 08:32:18;;;;;;;2.92;1.70;;;15.30;99.90;;;;;;7389295;19;20175;-83
2022/09/26 08:34:45;;;;;;;3.65;1.50;;;15.30;99.90;;;;;;7388135;19;20165;-82
2022/09/26 08:37:11;;;;;;;3.25;2.00;;;15.30;99.90;;;;;;7389014;19;20145;-82
2022/09/26 08:39:36;;;;;;;3.97;1.92;;;15.30;99.90;;;;;;7391279;19;20134;-83
2022/09/26 08:42:22;;;;;;;4.43;1.60;;;15.40;99.90;;;;;;7390377;19;20134;-83
2022/09/26 08:46:25;;;;;;;2.15;1.50;;;15.50;99.90;;;;;;7397839;19;20135;-82
2022/09/26 08:48:01;;;;;;;6.95;4.13;;;15.40;99.90;;;;;;7390850;19;20142;-83
2022/09/26 08:50:47;;;;;;;5.72;4.22;;;15.50;99.90;;;;;;7390743;19;20142;-83
2022/09/26 08:53:19;;;;;;;4.38;2.10;;;15.70;99.90;;;;;;7389146;19;20453;-84
2022/09/26 08:55:47;;;;;;;3.45;2.50;;;15.80;99.90;;;;;;7384572;19;20143;-85
2022/09/26 08:58:21;;;;;;;2.70;1.65;;;15.80;99.90;;;;;;7383404;19;20142;-83
2022/09/26 09:00:53;;;;;;;3.80;2.17;;;15.90;99.90;;;;;;7384412;19;20139;-83
2022/09/26 09:03:28;;;;;;;2.30;1.50;;;16.00;99.90;;;;;;7383152;19;20146;-82
2022/09/26 09:06:07;;;;;;;2.58;1.67;;;16.20;99.90;;;;;;7383233;19;20914;-81
2022/09/26 09:08:43;;;;;;;3.50;2.33;;;16.30;99.90;;;;;;7388303;19;20142;-81
2022/09/26 09:11:37;;;;;;;4.47;3.00;;;16.30;99.90;;;;;;7395222;19;20130;-81
2022/09/26 09:14:39;;;;;;;5.43;1.73;;;16.40;99.90;;;;;;7392032;19;20183;-83
2022/09/26 09:17:42;;;;;;;4.22;2.03;;;16.60;99.90;;;;;;7392879;19;20678;-82
2022/09/26 09:20:19;;;;;;;4.50;2.58;;;16.70;99.90;;;;;;7394900;19;20222;-81
2022/09/26 09:23:20;;;;;;;4.35;2.05;;;16.80;99.90;;;;;;7399781;19;20228;-81
2022/09/26 09:26:07;;;;;;;4.90;2.00;;;16.90;99.90;;;;;;7393719;19;20147;-82
2022/09/26 09:28:36;;;;;;;2.40;1.85;;;17.00;99.90;;;;;;7406493;19;20137;-83
2022/09/26 09:31:08;;;;;;;6.10;2.70;;;17.10;99.90;;;;;;7403174;19;20155;-79
2022/09/26 09:33:48;;;;;;;3.28;2.28;;;17.10;99.90;;;;;;7397460;19;20172;-82
2022/09/26 09:36:18;;;;;;;5.38;2.72;;;17.30;99.90;;;;;;7397598;19;20586;-81
2022/09/26 09:38:47;;;;;;;1.85;1.42;;;17.30;99.90;;;;;;7397204;19;20145;-79
2022/09/26 09:41:34;;;;;;;2.75;1.55;;;17.20;99.90;;;;;;7398686;19;20146;-82
2022/09/26 09:44:08;;;;;;;3.50;1.88;;;17.30;99.90;;;;;;7397702;19;20162;-83
2022/09/26 09:46:39;;;;;;;4.22;2.10;;;17.20;99.90;;;;;;7404553;19;20150;-82
2022/09/26 09:49:22;;;;;;;3.75;1.60;;;17.30;99.90;;;;;;7410540;19;20178;-82
2022/09/26 09:52:12;;;;;;;2.97;1.10;;;17.30;99.90;;;;;;7397080;19;20155;-81
2022/09/26 09:54:59;;;;;;;1.60;1.40;;;17.40;99.90;;;;;;7400216;19;20171;-82
2022/09/26 09:57:44;;;;;;;1.98;1.20;;;17.50;99.90;;;;;;7393628;19;20623;-82
2022/09/26 10:00:18;;;;;;;2.25;1.00;;;17.50;99.90;;;;;;7395568;19;20647;-84
2022/09/26 10:03:03;;;;;;;2.83;1.50;;;17.50;99.90;;;;;;7413629;19;20766;-83
2022/09/26 10:05:44;;;;;;;4.07;2.15;;;17.50;99.90;;;;;;7399590;19;20145;-84
2022/09/26 10:08:13;;;;;;;3.78;2.00;;;17.60;99.90;;;;;;7397158;19;20682;-83
2022/09/26 10:10:56;;;;;;;2.30;1.85;;;17.60;99.90;;;;;;7400263;19;20627;-83
2022/09/26 10:13:25;;;;;;;3.75;1.40;;;17.70;99.90;;;;;;7399291;19;20141;-83
2022/09/26 10:15:59;;;;;;;3.00;1.90;;;17.60;99.90;;;;;;7395417;19;20155;-85
2022/09/26 10:18:26;;;;;;;1.83;1.45;;;17.30;99.90;;;;;;7405643;19;20150;-83
2022/09/26 10:20:56;;;;;;;2.80;1.60;;;17.20;99.90;;;;;;7396658;19;20174;-83
2022/09/26 10:23:21;;;;;;;1.83;1.00;;;17.00;99.90;;;;;;7396175;19;20203;-82
2022/09/26 10:25:49;;;;;;;2.33;1.20;;;17.00;99.90;;;;;;7402125;19;20451;-82
2022/09/26 10:28:28;;;;;;;1.92;0.98;;;16.90;99.90;;;;;;7399353;19;20154;-85
2022/09/26 10:31:02;;;;;;;3.47;1.45;;;16.80;99.90;;;;;;7394851;19;20134;-83
2022/09/26 10:33:34;;;;;;;3.50;1.10;;;16.90;99.90;;;;;;7398369;19;20122;-84
2022/09/26 10:36:09;;;;;;;1.52;1.15;;;16.90;99.90;;;;;;7392630;19;20138;-83
2022/09/26 10:41:43;;;;;;;7.00;4.80;;;17.40;99.90;;;;;;7397952;19;20138;-83
2022/09/26 10:44:26;;;;;;;5.75;2.90;;;17.40;99.90;;;;;;7397366;19;20130;-84
2022/09/26 10:46:56;;;;;;;2.55;1.20;;;17.60;99.90;;;;;;7396855;19;20134;-83
2022/09/26 10:49:31;;;;;;;1.83;1.33;;;17.60;99.90;;;;;;7394719;19;20146;-84
2022/09/26 10:52:07;;;;;;;2.05;0.88;;;17.40;99.90;;;;;;7396456;19;20162;-84
2022/09/26 10:54:47;;;;;;;1.73;0.88;;;17.50;99.90;;;;;;7396383;19;20151;-84
2022/09/26 10:57:23;;;;;;;1.90;1.10;;;17.30;99.90;;;;;;7396642;19;20149;-82
2022/09/26 10:59:52;;;;;;;1.70;0.90;;;17.50;99.90;;;;;;7407797;19;20138;-83
2022/09/26 11:02:22;;;;;;;1.77;1.10;;;17.30;99.90;;;;;;7407170;19;20143;-81
2022/09/26 11:07:42;;;;;;;0.90;0.77;;;17.20;99.90;;;;;;7395229;19;20167;-82
2022/09/26 11:10:14;;;;;;;1.48;1.00;;;17.20;99.90;;;;;;7399008;19;20145;-83
2022/09/26 11:12:59;;;;;;;1.65;1.08;;;17.30;99.90;;;;;;7393136;19;20161;-83
2022/09/26 11:15:27;;;;;;;1.65;1.15;;;17.30;99.90;;;;;;7398113;19;20158;-83
2022/09/26 11:17:54;;;;;;;3.47;1.20;;;17.40;99.90;;;;;;7396542;19;20375;-82
2022/09/26 11:20:45;;;;;;;2.13;1.35;;;17.30;99.90;;;;;;7395241;19;20485;-83
2022/09/26 11:23:33;;;;;;;3.88;2.78;;;17.00;99.90;;;;;;7397512;19;20142;-83
2022/09/26 11:26:17;;;;;;;4.95;2.20;;;17.00;99.90;;;;;;7397168;19;20146;-83
2022/09/26 11:29:23;;;;;;;2.33;2.13;;;16.80;99.90;;;;;;7399549;19;20138;-87
2022/09/26 11:31:49;;;;;;;2.38;1.05;;;16.90;99.90;;;;;;7399868;19;20695;-83
2022/09/26 11:34:26;;;;;;;2.35;1.00;;;17.00;99.90;;;;;;7403716;19;20607;-83
2022/09/26 11:37:01;;;;;;;1.70;1.25;;;16.90;99.90;;;;;;7398483;19;20169;-83
2022/09/26 11:40:11;;;;;;;2.05;0.88;;;17.20;99.90;;;;;;7396113;19;20142;-83
2022/09/26 11:43:17;;;;;;;3.28;1.10;;;17.10;99.90;;;;;;7394248;19;20150;-85
2022/09/26 11:46:14;;;;;;;1.83;0.93;;;17.20;99.90;;;;;;7392006;19;20150;-84
2022/09/26 11:49:01;;;;;;;1.95;0.85;;;17.50;99.90;;;;;;7392659;19;20158;-81
2022/09/26 11:51:41;;;;;;;1.40;0.82;;;17.80;99.90;;;;;;7394022;19;20139;-82
2022/09/26 11:54:32;;;;;;;1.00;0.80;;;17.80;99.90;;;;;;7394021;19;20491;-81
2022/09/26 11:57:27;;;;;;;1.65;0.50;;;17.90;99.90;;;;;;7395567;19;20154;-80
2022/09/26 12:00:25;;;;;;;3.50;0.93;;;17.90;99.90;;;;;;7390040;19;20219;-80
2022/09/26 12:03:18;;;;;;;4.78;0.80;;;17.70;99.90;;;;;;7395737;19;20138;-82
2022/09/26 12:06:20;;;;;;;1.15;0.80;;;17.60;99.90;;;;;;7393848;19;20534;-81
2022/09/26 12:09:01;;;;;;;3.83;0.82;;;17.50;99.90;;;;;;7396317;19;20198;-85
2022/09/26 12:12:02;;;;;;;0.82;0.60;;;17.40;99.90;;;;;;7400018;19;20131;-81
2022/09/26 12:14:41;;;;;;;1.80;0.73;;;17.10;99.90;;;;;;7398072;19;20146;-82
2022/09/26 12:17:35;;;;;;;2.42;1.08;;;17.00;99.90;;;;;;7398149;19;20135;-81
2022/09/26 12:20:33;;;;;;;1.92;0.70;;;16.90;99.90;;;;;;7398130;19;20189;-79
2022/09/26 12:23:05;;;;;;;4.60;1.05;;;16.80;99.90;;;;;;7397981;19;20154;-83
2022/09/26 12:26:13;;;;;;;3.20;1.00;;;16.80;99.90;;;;;;7396822;19;20153;-81
2022/09/26 12:29:09;;;;;;;1.30;1.00;;;16.80;99.90;;;;;;7394530;19;20137;-83
2022/09/26 12:31:58;;;;;;;1.50;1.10;;;16.90;99.90;;;;;;7393716;19;20145;-82
2022/09/26 12:34:36;;;;;;;1.73;1.23;;;17.00;99.90;;;;;;7395398;19;20153;-81
2022/09/26 12:37:22;;;;;;;1.88;1.17;;;17.20;99.90;;;;;;7393567;19;20462;-81
2022/09/26 12:40:08;;;;;;;2.35;1.23;;;17.30;99.90;;;;;;7391129;19;20887;-81
2022/09/26 12:43:04;;;;;;;2.97;0.90;;;17.40;99.90;;;;;;7393667;19;20142;-81
2022/09/26 12:45:52;;;;;;;1.63;0.95;;;17.40;99.90;;;;;;7395493;19;20134;-81
2022/09/26 12:48:47;;;;;;;1.92;0.80;;;17.30;99.90;;;;;;7394429;19;20147;-83
2022/09/26 12:51:46;;;;;;;0.75;0.70;;;17.30;99.90;;;;;;7392822;19;20202;-82
2022/09/26 12:54:32;;;;;;;1.08;0.80;;;17.20;99.90;;;;;;7394782;19;20154;-84
2022/09/26 12:57:17;;;;;;;1.65;0.68;;;17.20;99.90;;;;;;7393363;19;20473;-81
2022/09/26 13:00:04;;;;;;;1.05;0.60;;;17.20;99.90;;;;;;7393240;19;20208;-83
2022/09/26 13:03:06;;;;;;;1.30;0.60;;;17.20;99.90;;;;;;7393833;19;20134;-81
2022/09/26 13:06:06;;;;;;;1.17;0.80;;;17.20;99.90;;;;;;7395827;19;20152;-81
2022/09/26 13:09:02;;;;;;;1.10;0.60;;;17.30;99.90;;;;;;7394734;19;20512;-81
2022/09/26 13:11:45;;;;;;;1.00;0.65;;;17.20;99.90;;;;;;7400714;19;20138;-83
2022/09/26 13:14:38;;;;;;;0.60;0.60;;;17.10;99.90;;;;;;7403331;19;20232;-82
2022/09/26 13:17:09;;;;;;;3.13;0.90;;;17.00;99.90;;;;;;7400937;19;20133;-82
2022/09/26 13:19:37;;;;;;;1.17;0.63;;;17.00;99.90;;;;;;7404137;19;20126;-81
2022/09/26 13:22:13;;;;;;;0.52;0.45;;;16.90;99.90;;;;;;7401365;19;20162;-81
2022/09/26 13:24:48;;;;;;;0.60;0.47;;;16.70;99.90;;;;;;7401478;19;20150;-82
2022/09/26 13:27:22;;;;;;;0.90;0.70;;;16.70;99.90;;;;;;7399581;19;20138;-80
2022/09/26 13:30:01;;;;;;;0.82;0.50;;;16.80;99.90;;;;;;7399210;19;20230;-84
2022/09/26 13:32:43;;;;;;;0.55;0.43;;;16.80;99.90;;;;;;7401027;19;20130;-83
2022/09/26 13:35:21;;;;;;;0.50;0.40;;;16.60;99.90;;;;;;7403910;19;20154;-85
2022/09/26 13:38:13;;;;;;;1.27;0.60;;;16.40;99.90;;;;;;7401217;19;20497;-82
2022/09/26 13:40:53;;;;;;;0.32;0.32;;;16.60;99.90;;;;;;7406838;19;20455;-83